sensor_id;sensor_type;location;lat;lon;timestamp;noise_LAeq;noise_LA_min;noise_LA_max;noise_LA01;noise_LA95
66449;Laerm;56828;52.294;4.666;2023-04-28T00:00:07;38.12;36.05;40.10;;
66449;Laerm;56828;52.294;4.666;2023-04-28T00:00:18;39.06;36.78;42.75;;
66449;Laerm;56828;52.294;4.666;2023-04-28T00:00:29;39.04;36.72;44.79;;
66449;Laerm;56828;52.294;4.666;2023-04-28T00:00:39;41.06;38.19;44.05;;
66449;Laerm;56828;52.294;4.666;2023-04-28T00:00:50;43.57;39.09;47.62;;
66449;Laerm;56828;52.294;4.666;2023-04-28T00:01:00;42.68;36.83;48.00;;
66449;Laerm;56828;52.294;4.666;2023-04-28T00:01:14;39.77;36.69;46.35;;
66449;Laerm;56828;52.294;4.666;2023-04-28T00:01:24;39.56;37.25;43.17;;
66449;Laerm;56828;52.294;4.666;2023-04-28T00:01:34;39.21;36.22;41.62;;
66449;Laerm;56828;52.294;4.666;2023-04-28T00:01:44;37.80;35.06;39.90;;
66449;Laerm;56828;52.294;4.666;2023-04-28T00:01:55;36.86;34.31;39.06;;
66449;Laerm;56828;52.294;4.666;2023-04-28T00:02:05;37.40;35.34;45.26;;
66449;Laerm;56828;52.294;4.666;2023-04-28T00:02:15;37.07;34.86;38.87;;
66449;Laerm;56828;52.294;4.666;2023-04-28T00:02:26;37.06;35.33;39.31;;
66449;Laerm;56828;52.294;4.666;2023-04-28T00:02:36;40.18;35.46;49.68;;
66449;Laerm;56828;52.294;4.666;2023-04-28T00:02:46;39.51;36.32;48.67;;
66449;Laerm;56828;52.294;4.666;2023-04-28T00:02:58;37.64;35.27;40.62;;
66449;Laerm;56828;52.294;4.666;2023-04-28T00:03:08;39.64;35.02;49.28;;
66449;Laerm;56828;52.294;4.666;2023-04-28T00:03:18;43.98;36.66;55.57;;
66449;Laerm;56828;52.294;4.666;2023-04-28T00:03:29;40.88;37.46;45.23;;
66449;Laerm;56828;52.294;4.666;2023-04-28T00:03:39;46.95;40.16;50.85;;
66449;Laerm;56828;52.294;4.666;2023-04-28T00:03:50;44.62;36.81;50.05;;
66449;Laerm;56828;52.294;4.666;2023-04-28T00:04:00;39.25;36.34;41.74;;
66449;Laerm;56828;52.294;4.666;2023-04-28T00:04:10;37.55;35.25;40.54;;
66449;Laerm;56828;52.294;4.666;2023-04-28T00:04:21;37.13;34.08;41.09;;
66449;Laerm;56828;52.294;4.666;2023-04-28T00:04:31;38.28;35.49;45.50;;
66449;Laerm;56828;52.294;4.666;2023-04-28T00:04:41;37.85;35.83;39.46;;
66449;Laerm;56828;52.294;4.666;2023-04-28T00:04:52;38.24;35.58;44.31;;
66449;Laerm;56828;52.294;4.666;2023-04-28T00:05:03;38.38;36.01;40.36;;
66449;Laerm;56828;52.294;4.666;2023-04-28T00:05:14;39.70;37.37;41.83;;
66449;Laerm;56828;52.294;4.666;2023-04-28T00:05:24;40.00;38.07;42.75;;
66449;Laerm;56828;52.294;4.666;2023-04-28T00:05:34;38.77;36.56;40.88;;
66449;Laerm;56828;52.294;4.666;2023-04-28T00:05:45;38.85;36.77;40.84;;
66449;Laerm;56828;52.294;4.666;2023-04-28T00:05:56;39.91;37.26;42.70;;
66449;Laerm;56828;52.294;4.666;2023-04-28T00:06:06;40.15;36.56;43.60;;
66449;Laerm;56828;52.294;4.666;2023-04-28T00:06:17;37.83;35.67;39.58;;
66449;Laerm;56828;52.294;4.666;2023-04-28T00:06:27;37.35;35.30;39.74;;
66449;Laerm;56828;52.294;4.666;2023-04-28T00:06:37;37.31;35.49;39.19;;
66449;Laerm;56828;52.294;4.666;2023-04-28T00:06:48;37.69;35.45;39.70;;
66449;Laerm;56828;52.294;4.666;2023-04-28T00:06:58;37.24;35.43;39.16;;
66449;Laerm;56828;52.294;4.666;2023-04-28T00:07:08;37.58;35.53;39.72;;
66449;Laerm;56828;52.294;4.666;2023-04-28T00:07:18;38.82;35.74;42.05;;
66449;Laerm;56828;52.294;4.666;2023-04-28T00:07:29;40.91;37.08;45.43;;
66449;Laerm;56828;52.294;4.666;2023-04-28T00:07:39;47.00;42.09;50.58;;
66449;Laerm;56828;52.294;4.666;2023-04-28T00:07:50;39.78;35.85;45.16;;
66449;Laerm;56828;52.294;4.666;2023-04-28T00:08:00;36.84;34.72;39.29;;
66449;Laerm;56828;52.294;4.666;2023-04-28T00:08:12;38.42;34.75;45.87;;
66449;Laerm;56828;52.294;4.666;2023-04-28T00:08:22;42.34;36.38;54.90;;
66449;Laerm;56828;52.294;4.666;2023-04-28T00:08:36;41.75;36.93;49.81;;
66449;Laerm;56828;52.294;4.666;2023-04-28T00:08:46;45.71;40.26;51.85;;
66449;Laerm;56828;52.294;4.666;2023-04-28T00:08:56;47.11;41.32;53.74;;
66449;Laerm;56828;52.294;4.666;2023-04-28T00:09:07;47.29;42.50;53.88;;
66449;Laerm;56828;52.294;4.666;2023-04-28T00:09:20;47.74;41.68;57.94;;
66449;Laerm;56828;52.294;4.666;2023-04-28T00:09:31;43.88;38.62;48.93;;
66449;Laerm;56828;52.294;4.666;2023-04-28T00:09:41;41.55;37.89;46.56;;
66449;Laerm;56828;52.294;4.666;2023-04-28T00:09:51;40.54;37.63;43.34;;
66449;Laerm;56828;52.294;4.666;2023-04-28T00:10:02;40.38;37.42;42.80;;
66449;Laerm;56828;52.294;4.666;2023-04-28T00:10:12;40.04;37.10;43.32;;
66449;Laerm;56828;52.294;4.666;2023-04-28T00:10:22;42.98;37.91;51.21;;
66449;Laerm;56828;52.294;4.666;2023-04-28T00:10:33;47.05;38.91;52.86;;
66449;Laerm;56828;52.294;4.666;2023-04-28T00:10:43;38.79;36.19;41.32;;
66449;Laerm;56828;52.294;4.666;2023-04-28T00:10:53;38.38;35.55;40.81;;
66449;Laerm;56828;52.294;4.666;2023-04-28T00:11:07;39.22;35.93;42.37;;
66449;Laerm;56828;52.294;4.666;2023-04-28T00:11:18;39.04;35.66;44.76;;
66449;Laerm;56828;52.294;4.666;2023-04-28T00:11:28;39.50;35.36;50.32;;
66449;Laerm;56828;52.294;4.666;2023-04-28T00:11:38;38.74;36.08;48.66;;
66449;Laerm;56828;52.294;4.666;2023-04-28T00:11:48;39.00;36.22;41.56;;
66449;Laerm;56828;52.294;4.666;2023-04-28T00:11:59;37.82;35.89;41.34;;
66449;Laerm;56828;52.294;4.666;2023-04-28T00:12:09;38.40;35.76;43.50;;
66449;Laerm;56828;52.294;4.666;2023-04-28T00:12:20;43.07;38.44;47.08;;
66449;Laerm;56828;52.294;4.666;2023-04-28T00:12:30;45.77;42.14;49.34;;
66449;Laerm;56828;52.294;4.666;2023-04-28T00:12:41;44.84;38.21;48.75;;
66449;Laerm;56828;52.294;4.666;2023-04-28T00:12:51;37.74;35.21;40.34;;
66449;Laerm;56828;52.294;4.666;2023-04-28T00:13:01;37.06;35.18;38.74;;
66449;Laerm;56828;52.294;4.666;2023-04-28T00:13:12;37.55;35.05;39.50;;
66449;Laerm;56828;52.294;4.666;2023-04-28T00:13:22;37.83;35.74;39.45;;
66449;Laerm;56828;52.294;4.666;2023-04-28T00:13:33;37.35;35.13;39.16;;
66449;Laerm;56828;52.294;4.666;2023-04-28T00:13:44;37.85;34.95;44.05;;
66449;Laerm;56828;52.294;4.666;2023-04-28T00:13:54;38.36;35.62;40.67;;
66449;Laerm;56828;52.294;4.666;2023-04-28T00:14:05;38.35;36.00;40.29;;
66449;Laerm;56828;52.294;4.666;2023-04-28T00:14:15;37.96;35.63;39.86;;
66449;Laerm;56828;52.294;4.666;2023-04-28T00:14:25;36.77;34.49;39.17;;
66449;Laerm;56828;52.294;4.666;2023-04-28T00:14:36;37.47;35.26;44.13;;
66449;Laerm;56828;52.294;4.666;2023-04-28T00:14:46;36.97;34.51;39.11;;
66449;Laerm;56828;52.294;4.666;2023-04-28T00:14:56;37.17;34.50;40.26;;
66449;Laerm;56828;52.294;4.666;2023-04-28T00:15:07;37.79;36.05;39.81;;
66449;Laerm;56828;52.294;4.666;2023-04-28T00:15:18;38.14;36.13;40.05;;
66449;Laerm;56828;52.294;4.666;2023-04-28T00:15:28;38.41;35.62;40.70;;
66449;Laerm;56828;52.294;4.666;2023-04-28T00:15:38;37.94;35.69;40.21;;
66449;Laerm;56828;52.294;4.666;2023-04-28T00:15:49;39.14;36.85;42.74;;
66449;Laerm;56828;52.294;4.666;2023-04-28T00:16:01;38.78;35.56;42.22;;
66449;Laerm;56828;52.294;4.666;2023-04-28T00:16:12;37.94;35.57;40.23;;
66449;Laerm;56828;52.294;4.666;2023-04-28T00:16:22;37.32;35.32;42.16;;
66449;Laerm;56828;52.294;4.666;2023-04-28T00:16:32;37.52;35.56;39.39;;
66449;Laerm;56828;52.294;4.666;2023-04-28T00:16:43;37.76;35.78;40.92;;
66449;Laerm;56828;52.294;4.666;2023-04-28T00:16:53;37.40;35.58;38.98;;
66449;Laerm;56828;52.294;4.666;2023-04-28T00:17:05;36.71;34.32;38.65;;
66449;Laerm;56828;52.294;4.666;2023-04-28T00:17:16;36.29;34.52;38.40;;
66449;Laerm;56828;52.294;4.666;2023-04-28T00:17:26;36.19;33.80;38.09;;
66449;Laerm;56828;52.294;4.666;2023-04-28T00:17:36;37.41;34.61;44.78;;
66449;Laerm;56828;52.294;4.666;2023-04-28T00:17:46;42.52;35.01;54.20;;
66449;Laerm;56828;52.294;4.666;2023-04-28T00:17:57;37.48;35.43;45.05;;
66449;Laerm;56828;52.294;4.666;2023-04-28T00:18:07;38.51;36.00;41.33;;
66449;Laerm;56828;52.294;4.666;2023-04-28T00:18:18;48.31;37.70;60.01;;
66449;Laerm;56828;52.294;4.666;2023-04-28T00:18:29;40.14;35.55;47.56;;
66449;Laerm;56828;52.294;4.666;2023-04-28T00:18:39;37.10;34.66;40.30;;
66449;Laerm;56828;52.294;4.666;2023-04-28T00:18:49;37.78;35.32;43.19;;
66449;Laerm;56828;52.294;4.666;2023-04-28T00:19:00;37.59;35.56;39.65;;
66449;Laerm;56828;52.294;4.666;2023-04-28T00:19:10;37.74;35.80;39.87;;
66449;Laerm;56828;52.294;4.666;2023-04-28T00:19:21;38.25;35.78;43.62;;
66449;Laerm;56828;52.294;4.666;2023-04-28T00:19:31;41.63;36.49;53.84;;
66449;Laerm;56828;52.294;4.666;2023-04-28T00:19:41;42.84;38.15;49.58;;
66449;Laerm;56828;52.294;4.666;2023-04-28T00:19:52;39.12;36.14;41.83;;
66449;Laerm;56828;52.294;4.666;2023-04-28T00:20:02;38.13;36.08;43.42;;
66449;Laerm;56828;52.294;4.666;2023-04-28T00:20:12;38.28;35.83;41.74;;
66449;Laerm;56828;52.294;4.666;2023-04-28T00:20:23;38.23;35.73;39.84;;
66449;Laerm;56828;52.294;4.666;2023-04-28T00:20:33;37.67;35.13;41.26;;
66449;Laerm;56828;52.294;4.666;2023-04-28T00:20:43;36.84;34.74;38.93;;
66449;Laerm;56828;52.294;4.666;2023-04-28T00:20:54;37.35;35.30;39.67;;
66449;Laerm;56828;52.294;4.666;2023-04-28T00:21:04;38.61;35.49;41.24;;
66449;Laerm;56828;52.294;4.666;2023-04-28T00:21:15;39.44;36.55;42.24;;
66449;Laerm;56828;52.294;4.666;2023-04-28T00:21:26;38.11;35.70;40.61;;
66449;Laerm;56828;52.294;4.666;2023-04-28T00:21:37;41.19;36.30;51.55;;
66449;Laerm;56828;52.294;4.666;2023-04-28T00:21:48;38.73;34.58;44.51;;
66449;Laerm;56828;52.294;4.666;2023-04-28T00:21:58;43.82;35.30;51.19;;
66449;Laerm;56828;52.294;4.666;2023-04-28T00:22:08;45.13;36.50;53.94;;
66449;Laerm;56828;52.294;4.666;2023-04-28T00:22:19;37.54;35.30;42.83;;
66449;Laerm;56828;52.294;4.666;2023-04-28T00:22:29;38.08;35.87;40.30;;
66449;Laerm;56828;52.294;4.666;2023-04-28T00:22:40;37.75;35.76;41.22;;
66449;Laerm;56828;52.294;4.666;2023-04-28T00:22:50;38.07;34.86;40.35;;
66449;Laerm;56828;52.294;4.666;2023-04-28T00:23:01;39.02;34.09;48.73;;
66449;Laerm;56828;52.294;4.666;2023-04-28T00:23:11;36.60;34.62;38.49;;
66449;Laerm;56828;52.294;4.666;2023-04-28T00:23:21;36.80;34.89;40.32;;
66449;Laerm;56828;52.294;4.666;2023-04-28T00:23:31;40.00;34.63;54.93;;
66449;Laerm;56828;52.294;4.666;2023-04-28T00:23:42;38.33;34.67;48.57;;
66449;Laerm;56828;52.294;4.666;2023-04-28T00:23:52;37.58;34.50;47.74;;
66449;Laerm;56828;52.294;4.666;2023-04-28T00:24:02;35.94;34.19;38.13;;
66449;Laerm;56828;52.294;4.666;2023-04-28T00:24:13;36.08;33.98;37.87;;
66449;Laerm;56828;52.294;4.666;2023-04-28T00:24:23;37.05;34.97;40.82;;
66449;Laerm;56828;52.294;4.666;2023-04-28T00:24:33;38.12;34.19;48.66;;
66449;Laerm;56828;52.294;4.666;2023-04-28T00:24:45;36.30;34.06;39.90;;
66449;Laerm;56828;52.294;4.666;2023-04-28T00:24:55;37.94;34.50;47.44;;
66449;Laerm;56828;52.294;4.666;2023-04-28T00:25:06;37.32;34.76;46.56;;
66449;Laerm;56828;52.294;4.666;2023-04-28T00:25:16;41.89;34.92;57.62;;
66449;Laerm;56828;52.294;4.666;2023-04-28T00:25:27;40.81;34.70;50.25;;
66449;Laerm;56828;52.294;4.666;2023-04-28T00:25:37;37.16;35.19;40.96;;
66449;Laerm;56828;52.294;4.666;2023-04-28T00:25:51;37.88;34.98;45.52;;
66449;Laerm;56828;52.294;4.666;2023-04-28T00:26:01;36.82;33.97;38.79;;
66449;Laerm;56828;52.294;4.666;2023-04-28T00:26:11;36.94;34.80;38.86;;
66449;Laerm;56828;52.294;4.666;2023-04-28T00:26:22;36.93;34.91;38.90;;
66449;Laerm;56828;52.294;4.666;2023-04-28T00:26:32;37.28;35.11;40.52;;
66449;Laerm;56828;52.294;4.666;2023-04-28T00:26:42;38.19;34.28;46.23;;
66449;Laerm;56828;52.294;4.666;2023-04-28T00:26:53;37.73;35.33;42.29;;
66449;Laerm;56828;52.294;4.666;2023-04-28T00:27:03;38.73;36.24;46.45;;
66449;Laerm;56828;52.294;4.666;2023-04-28T00:27:13;38.68;35.51;45.38;;
66449;Laerm;56828;52.294;4.666;2023-04-28T00:27:23;39.04;36.52;47.78;;
66449;Laerm;56828;52.294;4.666;2023-04-28T00:27:34;38.04;35.53;43.70;;
66449;Laerm;56828;52.294;4.666;2023-04-28T00:27:44;37.45;34.82;42.33;;
66449;Laerm;56828;52.294;4.666;2023-04-28T00:27:55;37.67;35.32;39.90;;
66449;Laerm;56828;52.294;4.666;2023-04-28T00:28:05;37.97;35.55;41.63;;
66449;Laerm;56828;52.294;4.666;2023-04-28T00:28:15;37.91;35.73;40.86;;
66449;Laerm;56828;52.294;4.666;2023-04-28T00:28:26;38.23;35.74;43.80;;
66449;Laerm;56828;52.294;4.666;2023-04-28T00:28:36;45.01;36.55;61.67;;
66449;Laerm;56828;52.294;4.666;2023-04-28T00:28:47;40.10;36.43;44.98;;
66449;Laerm;56828;52.294;4.666;2023-04-28T00:28:57;40.21;37.82;41.99;;
66449;Laerm;56828;52.294;4.666;2023-04-28T00:29:07;39.93;37.71;43.16;;
66449;Laerm;56828;52.294;4.666;2023-04-28T00:29:17;40.68;38.04;44.76;;
66449;Laerm;56828;52.294;4.666;2023-04-28T00:29:28;39.52;36.76;45.69;;
66449;Laerm;56828;52.294;4.666;2023-04-28T00:29:38;39.92;37.24;46.50;;
66449;Laerm;56828;52.294;4.666;2023-04-28T00:29:48;40.07;36.72;47.16;;
66449;Laerm;56828;52.294;4.666;2023-04-28T00:29:59;40.65;37.47;47.10;;
66449;Laerm;56828;52.294;4.666;2023-04-28T00:30:09;40.16;36.48;46.53;;
66449;Laerm;56828;52.294;4.666;2023-04-28T00:30:20;40.46;37.61;47.91;;
66449;Laerm;56828;52.294;4.666;2023-04-28T00:30:30;40.88;37.75;45.39;;
66449;Laerm;56828;52.294;4.666;2023-04-28T00:30:40;46.57;38.11;55.02;;
66449;Laerm;56828;52.294;4.666;2023-04-28T00:30:51;40.94;37.65;48.20;;
66449;Laerm;56828;52.294;4.666;2023-04-28T00:31:01;39.54;37.07;43.02;;
66449;Laerm;56828;52.294;4.666;2023-04-28T00:31:12;40.32;37.81;45.49;;
66449;Laerm;56828;52.294;4.666;2023-04-28T00:31:22;39.31;36.83;43.73;;
66449;Laerm;56828;52.294;4.666;2023-04-28T00:31:33;39.37;36.98;47.21;;
66449;Laerm;56828;52.294;4.666;2023-04-28T00:31:44;39.79;37.07;46.35;;
66449;Laerm;56828;52.294;4.666;2023-04-28T00:31:54;42.43;37.99;47.63;;
66449;Laerm;56828;52.294;4.666;2023-04-28T00:32:05;45.19;39.15;51.58;;
66449;Laerm;56828;52.294;4.666;2023-04-28T00:32:15;45.46;41.06;51.10;;
66449;Laerm;56828;52.294;4.666;2023-04-28T00:32:25;44.04;40.18;48.45;;
66449;Laerm;56828;52.294;4.666;2023-04-28T00:32:36;44.84;39.56;51.40;;
66449;Laerm;56828;52.294;4.666;2023-04-28T00:32:46;44.43;40.55;48.67;;
66449;Laerm;56828;52.294;4.666;2023-04-28T00:32:56;44.42;39.99;48.77;;
66449;Laerm;56828;52.294;4.666;2023-04-28T00:33:07;43.14;38.92;49.57;;
66449;Laerm;56828;52.294;4.666;2023-04-28T00:33:17;41.55;38.58;47.64;;
66449;Laerm;56828;52.294;4.666;2023-04-28T00:33:27;41.81;39.45;45.09;;
66449;Laerm;56828;52.294;4.666;2023-04-28T00:33:41;41.05;37.90;46.94;;
66449;Laerm;56828;52.294;4.666;2023-04-28T00:33:51;41.35;38.29;49.25;;
66449;Laerm;56828;52.294;4.666;2023-04-28T00:34:01;39.86;37.29;43.10;;
66449;Laerm;56828;52.294;4.666;2023-04-28T00:34:12;39.05;36.37;42.92;;
66449;Laerm;56828;52.294;4.666;2023-04-28T00:34:23;40.13;36.96;50.75;;
66449;Laerm;56828;52.294;4.666;2023-04-28T00:34:34;40.47;36.72;48.55;;
66449;Laerm;56828;52.294;4.666;2023-04-28T00:34:46;38.84;36.35;41.14;;
66449;Laerm;56828;52.294;4.666;2023-04-28T00:34:56;38.83;36.73;41.31;;
66449;Laerm;56828;52.294;4.666;2023-04-28T00:35:07;39.08;36.93;43.81;;
66449;Laerm;56828;52.294;4.666;2023-04-28T00:35:17;38.61;35.79;42.18;;
66449;Laerm;56828;52.294;4.666;2023-04-28T00:35:27;42.49;37.08;50.21;;
66449;Laerm;56828;52.294;4.666;2023-04-28T00:35:38;41.07;37.06;48.62;;
66449;Laerm;56828;52.294;4.666;2023-04-28T00:35:48;40.02;37.56;42.47;;
66449;Laerm;56828;52.294;4.666;2023-04-28T00:35:59;39.81;36.92;42.48;;
66449;Laerm;56828;52.294;4.666;2023-04-28T00:36:10;40.63;36.13;44.99;;
66449;Laerm;56828;52.294;4.666;2023-04-28T00:36:20;40.51;37.56;42.92;;
66449;Laerm;56828;52.294;4.666;2023-04-28T00:36:30;40.29;37.31;43.83;;
66449;Laerm;56828;52.294;4.666;2023-04-28T00:36:41;39.70;37.55;42.04;;
66449;Laerm;56828;52.294;4.666;2023-04-28T00:36:52;39.11;36.86;41.36;;
66449;Laerm;56828;52.294;4.666;2023-04-28T00:37:02;38.91;36.73;40.87;;
66449;Laerm;56828;52.294;4.666;2023-04-28T00:37:13;38.86;36.53;43.32;;
66449;Laerm;56828;52.294;4.666;2023-04-28T00:37:23;38.90;36.40;42.11;;
66449;Laerm;56828;52.294;4.666;2023-04-28T00:37:34;42.23;38.45;45.46;;
66449;Laerm;56828;52.294;4.666;2023-04-28T00:37:45;40.71;38.19;44.88;;
66449;Laerm;56828;52.294;4.666;2023-04-28T00:37:55;39.13;36.78;41.13;;
66449;Laerm;56828;52.294;4.666;2023-04-28T00:38:06;39.20;36.48;44.86;;
66449;Laerm;56828;52.294;4.666;2023-04-28T00:38:16;40.92;36.04;50.02;;
66449;Laerm;56828;52.294;4.666;2023-04-28T00:38:26;38.00;35.99;39.95;;
66449;Laerm;56828;52.294;4.666;2023-04-28T00:38:37;39.21;36.33;41.55;;
66449;Laerm;56828;52.294;4.666;2023-04-28T00:38:47;37.59;35.18;39.72;;
66449;Laerm;56828;52.294;4.666;2023-04-28T00:38:57;37.32;35.38;39.44;;
66449;Laerm;56828;52.294;4.666;2023-04-28T00:39:08;37.53;35.29;39.27;;
66449;Laerm;56828;52.294;4.666;2023-04-28T00:39:19;37.34;35.29;39.11;;
66449;Laerm;56828;52.294;4.666;2023-04-28T00:39:30;37.28;34.95;39.09;;
66449;Laerm;56828;52.294;4.666;2023-04-28T00:39:40;37.87;35.83;39.88;;
66449;Laerm;56828;52.294;4.666;2023-04-28T00:39:54;38.18;36.21;39.92;;
66449;Laerm;56828;52.294;4.666;2023-04-28T00:40:05;38.02;36.09;40.46;;
66449;Laerm;56828;52.294;4.666;2023-04-28T00:40:15;38.20;35.75;40.37;;
66449;Laerm;56828;52.294;4.666;2023-04-28T00:40:38;37.89;35.79;40.71;;
66449;Laerm;56828;52.294;4.666;2023-04-28T00:40:48;37.82;35.56;40.37;;
66449;Laerm;56828;52.294;4.666;2023-04-28T00:40:59;38.08;36.12;40.29;;
66449;Laerm;56828;52.294;4.666;2023-04-28T00:41:09;37.58;35.23;39.55;;
66449;Laerm;56828;52.294;4.666;2023-04-28T00:41:20;37.86;35.88;40.70;;
66449;Laerm;56828;52.294;4.666;2023-04-28T00:41:30;38.36;35.31;47.80;;
66449;Laerm;56828;52.294;4.666;2023-04-28T00:41:43;37.87;35.60;44.76;;
66449;Laerm;56828;52.294;4.666;2023-04-28T00:41:53;45.16;36.49;57.99;;
66449;Laerm;56828;52.294;4.666;2023-04-28T00:42:03;40.42;35.55;53.27;;
66449;Laerm;56828;52.294;4.666;2023-04-28T00:42:14;39.64;35.11;51.93;;
66449;Laerm;56828;52.294;4.666;2023-04-28T00:42:24;37.23;35.35;40.62;;
66449;Laerm;56828;52.294;4.666;2023-04-28T00:42:35;37.68;35.53;43.57;;
66449;Laerm;56828;52.294;4.666;2023-04-28T00:42:45;38.81;35.95;43.49;;
66449;Laerm;56828;52.294;4.666;2023-04-28T00:42:56;38.75;36.03;40.65;;
66449;Laerm;56828;52.294;4.666;2023-04-28T00:43:06;40.28;36.65;45.78;;
66449;Laerm;56828;52.294;4.666;2023-04-28T00:43:16;39.52;36.52;41.87;;
66449;Laerm;56828;52.294;4.666;2023-04-28T00:43:27;38.61;35.84;41.15;;
66449;Laerm;56828;52.294;4.666;2023-04-28T00:43:44;38.13;35.56;40.61;;
66449;Laerm;56828;52.294;4.666;2023-04-28T00:43:54;38.18;35.75;40.96;;
66449;Laerm;56828;52.294;4.666;2023-04-28T00:44:05;39.41;36.90;41.84;;
66449;Laerm;56828;52.294;4.666;2023-04-28T00:44:15;39.19;37.12;44.60;;
66449;Laerm;56828;52.294;4.666;2023-04-28T00:44:26;38.41;36.19;40.97;;
66449;Laerm;56828;52.294;4.666;2023-04-28T00:44:36;38.47;36.38;40.63;;
66449;Laerm;56828;52.294;4.666;2023-04-28T00:44:46;39.04;36.30;49.76;;
66449;Laerm;56828;52.294;4.666;2023-04-28T00:44:56;37.78;36.10;39.89;;
66449;Laerm;56828;52.294;4.666;2023-04-28T00:45:07;37.84;35.93;39.67;;
66449;Laerm;56828;52.294;4.666;2023-04-28T00:45:17;37.74;36.08;39.96;;
66449;Laerm;56828;52.294;4.666;2023-04-28T00:45:28;37.70;35.81;39.76;;
66449;Laerm;56828;52.294;4.666;2023-04-28T00:45:38;49.96;36.13;67.20;;
66449;Laerm;56828;52.294;4.666;2023-04-28T00:45:49;40.67;36.76;57.77;;
66449;Laerm;56828;52.294;4.666;2023-04-28T00:45:59;43.78;36.95;58.91;;
66449;Laerm;56828;52.294;4.666;2023-04-28T00:46:10;41.96;38.34;48.25;;
66449;Laerm;56828;52.294;4.666;2023-04-28T00:46:21;42.24;36.03;48.33;;
66449;Laerm;56828;52.294;4.666;2023-04-28T00:46:33;37.50;35.31;39.55;;
66449;Laerm;56828;52.294;4.666;2023-04-28T00:46:43;37.32;35.35;42.60;;
66449;Laerm;56828;52.294;4.666;2023-04-28T00:46:54;38.79;35.54;48.91;;
66449;Laerm;56828;52.294;4.666;2023-04-28T00:47:05;37.61;36.03;39.61;;
66449;Laerm;56828;52.294;4.666;2023-04-28T00:47:16;38.11;35.94;39.76;;
66449;Laerm;56828;52.294;4.666;2023-04-28T00:47:27;39.22;35.98;47.72;;
66449;Laerm;56828;52.294;4.666;2023-04-28T00:47:37;37.97;35.53;39.83;;
66449;Laerm;56828;52.294;4.666;2023-04-28T00:47:47;38.04;35.64;39.97;;
66449;Laerm;56828;52.294;4.666;2023-04-28T00:47:58;37.57;35.52;39.29;;
66449;Laerm;56828;52.294;4.666;2023-04-28T00:48:08;38.61;36.17;41.90;;
66449;Laerm;56828;52.294;4.666;2023-04-28T00:48:18;38.53;35.60;42.06;;
66449;Laerm;56828;52.294;4.666;2023-04-28T00:48:29;37.58;35.45;39.36;;
66449;Laerm;56828;52.294;4.666;2023-04-28T00:48:39;37.69;35.33;42.22;;
66449;Laerm;56828;52.294;4.666;2023-04-28T00:48:50;38.38;36.09;46.14;;
66449;Laerm;56828;52.294;4.666;2023-04-28T00:49:00;37.73;34.90;40.63;;
66449;Laerm;56828;52.294;4.666;2023-04-28T00:49:14;38.52;35.34;40.60;;
66449;Laerm;56828;52.294;4.666;2023-04-28T00:49:24;36.71;35.01;38.75;;
66449;Laerm;56828;52.294;4.666;2023-04-28T00:49:35;37.88;34.81;43.24;;
66449;Laerm;56828;52.294;4.666;2023-04-28T00:49:45;38.05;35.81;41.27;;
66449;Laerm;56828;52.294;4.666;2023-04-28T00:49:59;39.79;36.93;43.40;;
66449;Laerm;56828;52.294;4.666;2023-04-28T00:50:10;40.39;37.69;42.38;;
66449;Laerm;56828;52.294;4.666;2023-04-28T00:50:21;40.18;37.59;42.78;;
66449;Laerm;56828;52.294;4.666;2023-04-28T00:50:32;43.20;37.07;48.77;;
66449;Laerm;56828;52.294;4.666;2023-04-28T00:50:42;46.11;41.85;49.12;;
66449;Laerm;56828;52.294;4.666;2023-04-28T00:50:53;44.87;38.51;48.96;;
66449;Laerm;56828;52.294;4.666;2023-04-28T00:51:03;39.58;36.96;41.87;;
66449;Laerm;56828;52.294;4.666;2023-04-28T00:51:15;39.33;37.29;41.44;;
66449;Laerm;56828;52.294;4.666;2023-04-28T00:51:26;40.47;38.15;44.06;;
66449;Laerm;56828;52.294;4.666;2023-04-28T00:51:38;42.71;39.21;46.02;;
66449;Laerm;56828;52.294;4.666;2023-04-28T00:51:48;43.52;39.60;46.64;;
66449;Laerm;56828;52.294;4.666;2023-04-28T00:51:59;40.02;37.07;48.82;;
66449;Laerm;56828;52.294;4.666;2023-04-28T00:52:12;38.42;36.13;40.17;;
66449;Laerm;56828;52.294;4.666;2023-04-28T00:52:23;38.34;36.11;40.56;;
66449;Laerm;56828;52.294;4.666;2023-04-28T00:52:33;37.81;35.88;39.99;;
66449;Laerm;56828;52.294;4.666;2023-04-28T00:52:44;38.01;35.80;40.11;;
66449;Laerm;56828;52.294;4.666;2023-04-28T00:52:54;37.82;35.41;39.97;;
66449;Laerm;56828;52.294;4.666;2023-04-28T00:53:05;39.22;36.51;44.68;;
66449;Laerm;56828;52.294;4.666;2023-04-28T00:53:15;38.97;36.31;45.33;;
66449;Laerm;56828;52.294;4.666;2023-04-28T00:53:25;38.71;36.09;40.63;;
66449;Laerm;56828;52.294;4.666;2023-04-28T00:53:36;38.25;35.70;40.55;;
66449;Laerm;56828;52.294;4.666;2023-04-28T00:53:47;38.37;36.22;40.17;;
66449;Laerm;56828;52.294;4.666;2023-04-28T00:53:57;37.98;35.44;39.49;;
66449;Laerm;56828;52.294;4.666;2023-04-28T00:54:08;37.88;35.70;39.50;;
66449;Laerm;56828;52.294;4.666;2023-04-28T00:54:18;38.25;35.98;40.18;;
66449;Laerm;56828;52.294;4.666;2023-04-28T00:54:29;39.65;36.91;47.85;;
66449;Laerm;56828;52.294;4.666;2023-04-28T00:54:39;40.72;38.00;45.79;;
66449;Laerm;56828;52.294;4.666;2023-04-28T00:54:51;41.98;38.67;45.24;;
66449;Laerm;56828;52.294;4.666;2023-04-28T00:55:02;45.44;40.53;54.47;;
66449;Laerm;56828;52.294;4.666;2023-04-28T00:55:13;44.12;40.31;49.78;;
66449;Laerm;56828;52.294;4.666;2023-04-28T00:55:24;40.85;38.20;44.55;;
66449;Laerm;56828;52.294;4.666;2023-04-28T00:55:35;39.22;37.00;41.99;;
66449;Laerm;56828;52.294;4.666;2023-04-28T00:55:46;38.87;36.79;40.92;;
66449;Laerm;56828;52.294;4.666;2023-04-28T00:55:57;38.25;35.88;40.04;;
66449;Laerm;56828;52.294;4.666;2023-04-28T00:56:07;37.98;35.97;40.08;;
66449;Laerm;56828;52.294;4.666;2023-04-28T00:56:18;38.22;36.21;40.92;;
66449;Laerm;56828;52.294;4.666;2023-04-28T00:56:28;38.43;36.11;40.00;;
66449;Laerm;56828;52.294;4.666;2023-04-28T00:56:40;37.79;36.26;39.73;;
66449;Laerm;56828;52.294;4.666;2023-04-28T00:56:51;38.88;35.73;42.00;;
66449;Laerm;56828;52.294;4.666;2023-04-28T00:57:01;36.87;35.08;38.62;;
66449;Laerm;56828;52.294;4.666;2023-04-28T00:57:12;37.30;35.45;39.98;;
66449;Laerm;56828;52.294;4.666;2023-04-28T00:57:22;38.08;35.82;41.68;;
66449;Laerm;56828;52.294;4.666;2023-04-28T00:57:33;38.10;36.23;40.10;;
66449;Laerm;56828;52.294;4.666;2023-04-28T00:57:43;39.75;37.03;41.83;;
66449;Laerm;56828;52.294;4.666;2023-04-28T00:57:54;42.86;38.24;48.00;;
66449;Laerm;56828;52.294;4.666;2023-04-28T00:58:05;42.10;39.17;44.68;;
66449;Laerm;56828;52.294;4.666;2023-04-28T00:58:16;44.19;39.74;47.14;;
66449;Laerm;56828;52.294;4.666;2023-04-28T00:58:26;39.44;36.78;41.90;;
66449;Laerm;56828;52.294;4.666;2023-04-28T00:58:37;38.79;35.91;41.80;;
66449;Laerm;56828;52.294;4.666;2023-04-28T00:58:47;37.44;35.41;39.65;;
66449;Laerm;56828;52.294;4.666;2023-04-28T00:58:58;37.06;35.07;39.27;;
66449;Laerm;56828;52.294;4.666;2023-04-28T00:59:08;37.63;35.35;39.70;;
66449;Laerm;56828;52.294;4.666;2023-04-28T00:59:19;38.17;35.82;40.00;;
66449;Laerm;56828;52.294;4.666;2023-04-28T00:59:29;38.32;36.16;41.49;;
66449;Laerm;56828;52.294;4.666;2023-04-28T00:59:40;39.57;36.29;42.70;;